Forside
METAR-TAF:

METAR-TAF

Lufthavne :

West Memphis, Arkansas, USA

Breddekreds: 35-08N, længdekreds: 090-14W, højde: 65 m

Aktuelle vejr

Denne rapport blev lavet for 24 minutter siden, kl. 22:53 UTC
Vind stille
Temperatur 12°C
Fugtighed 67%
Tryk 1020 hPa
Sigt: 9.7 km
skyfri
tåge/dis

METAR: KAWM 162253Z AUTO 00000KT 6SM HZ CLR 12/06 A3011 RMK AO2 SLP196 T01220056 $

Tid: 17:17 (23:17 UTC)


TAF: fraværende

Vejrobservationer og prognoser fra mere end 4000 lufthavne (METAR og TAF).

De gule og røde prikker repræsenterer de meteorologiske stationer.

Flyt musen over at se navnet på stationen.

Så klik over at se vejr observationer og prognoser.

At skifte det kort: Klik på de grønne knapper med et sort kors for at zoome ind; på den grønne knap med en bindestreg for at zoome ud; eller på de grønne pile for tilstødende kort.


METAR-TAF: